createdAt,value
2018-08-13T00:01:12.819Z,99578.62
2018-08-13T00:03:41.768Z,99578.50
2018-08-13T00:06:10.719Z,99583.91
2018-08-13T00:08:39.651Z,99578.06
2018-08-13T00:11:08.621Z,99580.43
2018-08-13T00:13:37.555Z,99579.52
2018-08-13T00:16:06.703Z,99584.59
2018-08-13T00:18:35.623Z,99580.53
2018-08-13T00:21:04.784Z,99578.18
2018-08-13T00:23:33.699Z,99580.77
2018-08-13T00:26:02.723Z,99579.17
2018-08-13T00:28:31.651Z,99571.30
2018-08-13T00:31:00.577Z,99569.83
2018-08-13T00:33:29.796Z,99564.48
2018-08-13T00:35:58.731Z,99570.48
2018-08-13T00:38:27.645Z,99568.22
2018-08-13T00:40:56.576Z,99566.97
2018-08-13T00:43:25.487Z,99559.28
2018-08-13T00:45:54.566Z,99559.97
2018-08-13T00:48:23.480Z,99552.52
2018-08-13T00:50:52.399Z,99555.67
2018-08-13T00:53:21.363Z,99557.91
2018-08-13T00:55:50.263Z,99554.53
2018-08-13T00:58:19.170Z,99547.52
2018-08-13T01:00:48.131Z,99551.09
2018-08-13T01:03:17.048Z,99556.27
2018-08-13T01:05:45.991Z,99549.50
2018-08-13T01:08:14.918Z,99550.75
2018-08-13T01:10:43.829Z,99546.33
2018-08-13T01:13:12.796Z,99545.30
2018-08-13T01:15:41.747Z,99541.14
2018-08-13T01:18:10.667Z,99536.16
2018-08-13T01:20:40.070Z,99537.48
2018-08-13T01:23:08.981Z,99536.37
2018-08-13T01:25:38.023Z,99534.55
2018-08-13T01:28:06.940Z,99538.38
2018-08-13T01:30:35.857Z,99526.30
2018-08-13T01:33:04.856Z,99527.44
2018-08-13T01:35:33.759Z,99515.94
2018-08-13T01:38:02.684Z,99515.70
2018-08-13T01:40:31.632Z,99519.40
2018-08-13T01:43:00.571Z,99510.50
2018-08-13T01:45:29.539Z,99512.17
2018-08-13T01:47:58.524Z,99516.02
2018-08-13T01:50:27.443Z,99511.70
2018-08-13T01:52:56.370Z,99507.66
2018-08-13T01:55:25.320Z,99513.52
2018-08-13T01:57:54.636Z,99510.56
2018-08-13T02:00:23.621Z,99511.20
2018-08-13T02:02:52.532Z,99509.53
2018-08-13T02:05:21.455Z,99512.23
2018-08-13T02:07:50.380Z,99511.20
2018-08-13T02:10:19.364Z,99503.52
2018-08-13T02:12:48.504Z,99506.31
2018-08-13T02:15:17.633Z,99507.10
2018-08-13T02:17:46.556Z,99507.52
2018-08-13T02:20:15.492Z,99511.11
2018-08-13T02:22:44.469Z,99512.03
2018-08-13T02:25:13.442Z,99507.52
2018-08-13T02:27:42.444Z,99505.17
2018-08-13T02:30:12.147Z,99500.97
2018-08-13T02:32:41.169Z,99500.67
2018-08-13T02:35:10.335Z,99496.16
2018-08-13T02:37:39.864Z,99496.04
2018-08-13T02:40:10.062Z,99494.69
2018-08-13T02:42:39.184Z,99497.02
2018-08-13T02:45:09.289Z,99497.02
2018-08-13T02:47:38.320Z,99499.88
2018-08-13T02:50:09.672Z,99491.05
2018-08-13T02:52:38.834Z,99493.53
2018-08-13T02:55:08.124Z,99498.47
2018-08-13T02:57:37.055Z,99496.75
2018-08-13T03:00:07.540Z,99497.05
2018-08-13T03:02:36.648Z,99494.09
2018-08-13T03:05:07.332Z,99488.69
2018-08-13T03:07:36.238Z,99491.48
2018-08-13T03:10:07.300Z,99480.19
2018-08-13T03:12:36.728Z,99483.45
2018-08-13T03:15:07.617Z,99482.05
2018-08-13T03:17:36.548Z,99479.35
2018-08-13T03:20:06.859Z,99477.72
2018-08-13T03:22:35.816Z,99476.13
2018-08-13T03:25:06.995Z,99473.42
2018-08-13T03:27:35.940Z,99470.44
2018-08-13T03:30:08.082Z,99468.34
2018-08-13T03:32:37.462Z,99463.98
2018-08-13T03:35:06.555Z,99466.11
2018-08-13T03:37:35.476Z,99465.11
2018-08-13T03:40:06.898Z,99466.93
2018-08-13T03:42:35.846Z,99461.19
2018-08-13T03:45:06.230Z,99458.83
2018-08-13T03:47:35.169Z,99461.75
2018-08-13T03:50:05.038Z,99461.19
2018-08-13T03:52:33.963Z,99461.28
2018-08-13T03:55:03.015Z,99459.71
2018-08-13T03:57:31.930Z,99457.23
2018-08-13T04:00:00.849Z,99452.14
2018-08-13T04:02:29.908Z,99451.89
2018-08-13T04:04:59.218Z,99445.66
2018-08-13T04:07:28.455Z,99452.20
2018-08-13T04:09:57.376Z,99449.41
2018-08-13T04:12:26.327Z,99443.23
2018-08-13T04:14:55.450Z,99445.14
2018-08-13T04:17:24.394Z,99443.51
2018-08-13T04:19:53.308Z,99447.93
2018-08-13T04:22:22.248Z,99444.25
2018-08-13T04:24:51.291Z,99444.94
2018-08-13T04:27:20.211Z,99442.95
2018-08-13T04:29:49.128Z,99438.14
2018-08-13T04:32:18.050Z,99444.13
2018-08-13T04:34:46.951Z,99439.07
2018-08-13T04:37:15.989Z,99442.21
2018-08-13T04:39:44.984Z,99438.05
2018-08-13T04:42:13.925Z,99439.88
2018-08-13T04:44:42.938Z,99449.91
2018-08-13T04:47:11.875Z,99445.04
2018-08-13T04:49:40.812Z,99444.13
2018-08-13T04:52:09.904Z,99450.92
2018-08-13T04:54:38.811Z,99442.03
2018-08-13T04:57:07.703Z,99443.64
2018-08-13T04:59:36.654Z,99441.86
2018-08-13T05:02:05.570Z,99432.60
2018-08-13T05:04:34.501Z,99434.73
2018-08-13T05:07:03.444Z,99437.14
2018-08-13T05:09:32.395Z,99436.02
2018-08-13T05:12:01.364Z,99438.39
2018-08-13T05:14:30.322Z,99435.38
2018-08-13T05:16:59.255Z,99433.58
2018-08-13T05:19:28.222Z,99437.89
2018-08-13T05:21:57.216Z,99444.20
2018-08-13T05:24:26.248Z,99455.50
2018-08-13T05:26:55.295Z,99452.78
2018-08-13T05:29:24.214Z,99451.31
2018-08-13T05:31:53.224Z,99452.98
2018-08-13T05:34:22.209Z,99452.77
2018-08-13T05:36:51.167Z,99457.13
2018-08-13T05:39:20.109Z,99452.91
2018-08-13T05:41:49.027Z,99449.95
2018-08-13T05:44:18.038Z,99454.07
2018-08-13T05:46:47.063Z,99452.83
2018-08-13T05:49:15.973Z,99448.16
2018-08-13T05:51:44.883Z,99444.59
2018-08-13T05:54:13.808Z,99437.53
2018-08-13T05:56:42.757Z,99440.48
2018-08-13T05:59:11.845Z,99435.22
2018-08-13T06:01:40.794Z,99431.40
2018-08-13T06:04:09.795Z,99426.09
2018-08-13T06:06:38.711Z,99426.62
2018-08-13T06:09:09.933Z,99422.57
2018-08-13T06:11:38.949Z,99415.64
2018-08-13T06:14:08.153Z,99417.08
2018-08-13T06:16:37.298Z,99407.64
2018-08-13T06:19:06.252Z,99397.91
2018-08-13T06:21:35.213Z,99394.86
2018-08-13T06:24:04.130Z,99383.63
2018-08-13T06:26:33.068Z,99384.31
2018-08-13T06:29:02.224Z,99380.23
2018-08-13T06:31:31.324Z,99372.97
2018-08-13T06:34:00.329Z,99364.69
2018-08-13T06:36:29.235Z,99366.27
2018-08-13T06:38:58.179Z,99367.33
2018-08-13T06:41:27.114Z,99370.24
2018-08-13T06:43:56.044Z,99360.23
2018-08-13T06:46:25.006Z,99359.23
2018-08-13T06:48:54.102Z,99359.83
2018-08-13T06:51:23.146Z,99357.61
2018-08-13T06:53:52.101Z,99359.05
2018-08-13T06:56:21.025Z,99366.22
2018-08-13T06:58:49.920Z,99368.63
2018-08-13T07:01:18.822Z,99363.05
2018-08-13T07:03:47.743Z,99366.77
2018-08-13T07:06:16.835Z,99360.13
2018-08-13T07:08:45.800Z,99362.72
2018-08-13T07:11:14.719Z,99357.09
2018-08-13T07:13:43.655Z,99357.06
2018-08-13T07:16:12.577Z,99356.87
2018-08-13T07:18:41.508Z,99350.89
2018-08-13T07:21:10.453Z,99354.34
2018-08-13T07:23:40.124Z,99352.86
2018-08-13T07:26:09.116Z,99348.95
2018-08-13T07:28:38.136Z,99344.14
2018-08-13T07:31:07.132Z,99344.42
2018-08-13T07:33:36.137Z,99342.97
2018-08-13T07:36:05.098Z,99330.17
2018-08-13T07:38:35.014Z,99333.19
2018-08-13T07:41:05.235Z,99338.26
2018-08-13T07:43:35.048Z,99339.55
2018-08-13T07:46:04.598Z,99330.40
2018-08-13T07:48:34.568Z,99326.39
2018-08-13T07:51:04.588Z,99324.32
2018-08-13T07:53:33.574Z,99325.33
2018-08-13T07:56:02.503Z,99322.41
2018-08-13T07:58:31.438Z,99328.91
2018-08-13T08:01:00.484Z,99326.21
2018-08-13T08:03:29.853Z,99323.52
2018-08-13T08:05:58.784Z,99320.35
2018-08-13T08:08:27.730Z,99316.22
2018-08-13T08:10:56.867Z,99317.84
2018-08-13T08:13:25.849Z,99322.00
2018-08-13T08:15:54.772Z,99318.58
2018-08-13T08:18:23.721Z,99319.65
2018-08-13T08:20:52.693Z,99321.50
2018-08-13T08:23:22.741Z,99317.78
2018-08-13T08:25:52.654Z,99313.14
2018-08-13T08:28:22.980Z,99308.20
2018-08-13T08:30:52.902Z,99310.83
2018-08-13T08:33:22.811Z,99296.38
2018-08-13T08:35:52.829Z,99294.17
2018-08-13T08:38:22.949Z,99296.47
2018-08-13T08:40:52.826Z,99294.73
2018-08-13T08:43:22.986Z,99295.31
2018-08-13T08:45:52.348Z,99286.45
2018-08-13T08:48:22.377Z,99285.05
2018-08-13T08:50:52.425Z,99274.61
2018-08-13T08:53:21.368Z,99283.58
2018-08-13T08:55:50.331Z,99278.93
2018-08-13T08:58:19.416Z,99278.59
2018-08-13T09:00:48.413Z,99283.09
2018-08-13T09:03:17.289Z,99279.69
2018-08-13T09:05:46.228Z,99272.88
2018-08-13T09:08:15.161Z,99267.84
2018-08-13T09:10:44.092Z,99264.91
2018-08-13T09:13:13.018Z,99265.54
2018-08-13T09:15:41.988Z,99260.35
2018-08-13T09:18:22.480Z,99263.94
2018-08-13T09:21:02.947Z,99259.30
2018-08-13T09:23:44.062Z,99263.28
2018-08-13T09:26:24.833Z,99256.42
2018-08-13T09:29:05.182Z,99256.16
2018-08-13T09:32:16.541Z,99260.88
2018-08-13T09:34:56.812Z,99264.03
2018-08-13T09:37:25.755Z,99255.36
2018-08-13T09:39:54.950Z,99253.37
2018-08-13T09:42:24.408Z,99247.88
2018-08-13T09:44:54.149Z,99241.11
2018-08-13T09:47:23.090Z,99235.03
2018-08-13T09:49:52.026Z,99233.69
2018-08-13T09:52:20.960Z,99235.70
2018-08-13T09:54:49.864Z,99238.80
2018-08-13T09:57:18.861Z,99236.24
2018-08-13T09:59:48.934Z,99232.34
2018-08-13T10:02:17.879Z,99241.41
2018-08-13T10:04:47.189Z,99242.83
2018-08-13T10:07:16.093Z,99229.20
2018-08-13T10:09:45.086Z,99229.16
2018-08-13T10:12:16.960Z,99237.85
2018-08-13T10:14:45.924Z,99221.76
2018-08-13T10:17:14.903Z,99216.73
2018-08-13T10:19:43.935Z,99206.67
2018-08-13T10:22:12.899Z,99203.27
2018-08-13T10:24:41.808Z,99202.28
2018-08-13T10:27:10.751Z,99209.52
2018-08-13T10:29:39.796Z,99206.23
2018-08-13T10:32:09.850Z,99203.03
2018-08-13T10:34:39.559Z,99197.56
2018-08-13T10:37:09.269Z,99205.16
2018-08-13T10:39:39.082Z,99203.28
2018-08-13T10:42:09.044Z,99191.34
2018-08-13T10:44:37.943Z,99186.32
2018-08-13T10:47:06.895Z,99186.34
2018-08-13T10:49:35.865Z,99176.57
2018-08-13T10:52:05.093Z,99175.90
2018-08-13T10:54:34.016Z,99182.08
2018-08-13T10:57:02.968Z,99177.87
2018-08-13T10:59:31.973Z,99171.33
2018-08-13T11:02:00.927Z,99173.11
2018-08-13T11:04:29.848Z,99158.09
2018-08-13T11:06:58.859Z,99171.28
2018-08-13T11:09:27.781Z,99164.42
2018-08-13T11:11:56.725Z,99152.31
2018-08-13T11:14:26.637Z,99150.47
2018-08-13T11:16:56.757Z,99152.20
2018-08-13T11:19:25.658Z,99150.27
2018-08-13T11:21:54.560Z,99143.14
2018-08-13T11:24:23.446Z,99131.27
2018-08-13T11:26:52.354Z,99129.06
2018-08-13T11:29:21.247Z,99124.70
2018-08-13T11:31:50.181Z,99121.11
2018-08-13T11:34:19.138Z,99116.92
2018-08-13T11:36:48.250Z,99126.52
2018-08-13T11:39:17.155Z,99122.05
2018-08-13T11:41:46.062Z,99120.77
2018-08-13T11:44:14.984Z,99122.31
2018-08-13T11:46:43.932Z,99115.78
2018-08-13T11:49:14.710Z,99108.89
2018-08-13T11:51:44.724Z,99110.05
2018-08-13T11:54:13.667Z,99111.45
2018-08-13T11:56:44.001Z,99109.24
2018-08-13T11:59:13.507Z,99105.02
2018-08-13T12:01:42.527Z,99104.55
2018-08-13T12:04:11.455Z,99101.63
2018-08-13T12:06:40.366Z,99104.37
2018-08-13T12:09:11.341Z,99109.55
2018-08-13T12:11:40.404Z,99099.03
2018-08-13T12:14:09.686Z,99092.05
2018-08-13T12:16:38.659Z,99097.22
2018-08-13T12:19:07.599Z,99089.94
2018-08-13T12:21:37.321Z,99098.09
2018-08-13T12:24:07.278Z,99106.63
2018-08-13T12:26:37.297Z,99098.84
2018-08-13T12:29:07.315Z,99093.47
2018-08-13T12:31:37.230Z,99102.89
2018-08-13T12:34:06.161Z,99091.95
2018-08-13T12:36:35.091Z,99087.94
2018-08-13T12:39:06.296Z,99082.89
2018-08-13T12:41:35.334Z,99087.91
2018-08-13T12:44:04.624Z,99089.57
2018-08-13T12:46:33.546Z,99086.31
2018-08-13T12:49:02.538Z,99085.72
2018-08-13T12:51:31.472Z,99088.98
2018-08-13T12:54:00.393Z,99091.22
2018-08-13T12:56:29.348Z,99079.77
2018-08-13T12:58:58.254Z,99076.53
2018-08-13T13:01:27.231Z,99066.47
2018-08-13T13:03:57.020Z,99069.86
2018-08-13T13:06:27.038Z,99066.73
2018-08-13T13:08:57.116Z,99073.11
2018-08-13T13:11:27.074Z,99070.19
2018-08-13T13:13:55.967Z,99058.33
2018-08-13T13:16:25.047Z,99054.67
2018-08-13T13:18:54.017Z,99060.89
2018-08-13T13:21:23.024Z,99058.13
2018-08-13T13:23:52.341Z,99061.60
2018-08-13T13:26:21.296Z,99059.19
2018-08-13T13:28:50.207Z,99048.13
2018-08-13T13:31:19.244Z,99054.86
2018-08-13T13:33:48.182Z,99052.90
2018-08-13T13:36:17.109Z,99048.34
2018-08-13T13:38:46.022Z,99046.45
2018-08-13T13:41:15.060Z,99048.75
2018-08-13T13:43:43.999Z,99036.14
2018-08-13T13:46:12.955Z,99041.98
2018-08-13T13:48:41.916Z,99046.00
2018-08-13T13:51:10.926Z,99042.32
2018-08-13T13:53:39.837Z,99043.88
2018-08-13T13:56:08.981Z,99041.17
2018-08-13T13:58:38.012Z,99038.75
2018-08-13T14:01:06.984Z,99037.41
2018-08-13T14:03:35.912Z,99045.68
2018-08-13T14:06:04.856Z,99043.41
2018-08-13T14:08:33.798Z,99049.65
2018-08-13T14:11:02.763Z,99048.85
2018-08-13T14:13:32.478Z,99057.83
2018-08-13T14:16:01.408Z,99070.34
2018-08-13T14:18:30.452Z,99076.22
2018-08-13T14:20:59.476Z,99071.84
2018-08-13T14:23:28.437Z,99080.39
2018-08-13T14:25:57.384Z,99074.85
2018-08-13T14:28:26.306Z,99085.39
2018-08-13T14:30:55.247Z,99090.56
2018-08-13T14:33:24.171Z,99091.85
2018-08-13T14:35:53.133Z,99091.72
2018-08-13T14:38:22.044Z,99104.58
2018-08-13T14:40:51.042Z,99104.45
2018-08-13T14:43:19.955Z,99117.11
2018-08-13T14:45:48.876Z,99119.59
2018-08-13T14:48:17.855Z,99119.19
2018-08-13T14:50:46.850Z,99131.56
2018-08-13T14:53:16.128Z,99142.97
2018-08-13T14:55:45.127Z,99148.45
2018-08-13T14:58:14.066Z,99149.53
2018-08-13T15:00:42.997Z,99154.13
2018-08-13T15:03:12.736Z,99174.19
2018-08-13T15:05:41.919Z,99176.87
2018-08-13T15:08:10.828Z,99179.75
2018-08-13T15:10:39.752Z,99190.36
2018-08-13T15:13:08.755Z,99202.30
2018-08-13T15:15:37.698Z,99209.26
2018-08-13T15:18:06.655Z,99219.07
2018-08-13T15:20:35.619Z,99219.33
2018-08-13T15:23:04.552Z,99219.76
2018-08-13T15:25:33.510Z,99217.14
2018-08-13T15:28:02.554Z,99216.17
2018-08-13T15:30:31.355Z,99218.16
2018-08-13T15:33:00.260Z,99216.72
2018-08-13T15:35:29.180Z,99225.00
2018-08-13T15:37:58.191Z,99226.53
2018-08-13T15:40:28.212Z,99229.42
2018-08-13T15:42:57.176Z,99237.19
2018-08-13T15:45:26.226Z,99247.83
2018-08-13T15:47:55.250Z,99245.81
2018-08-13T15:50:24.397Z,99245.67
2018-08-13T15:52:53.612Z,99251.24
2018-08-13T15:55:22.555Z,99255.22
2018-08-13T15:57:51.535Z,99267.67
2018-08-13T16:00:22.738Z,99276.92
2018-08-13T16:02:52.035Z,99272.25
2018-08-13T16:05:21.452Z,99273.14
2018-08-13T16:07:50.652Z,99267.11
2018-08-13T16:10:19.852Z,99270.75
2018-08-13T16:12:48.878Z,99271.28
2018-08-13T16:15:17.865Z,99265.84
2018-08-13T16:17:46.784Z,99258.47
2018-08-13T16:20:17.636Z,99251.28
2018-08-13T16:22:47.309Z,99257.72
2018-08-13T16:25:16.863Z,99252.68
2018-08-13T16:27:46.527Z,99238.48
2018-08-13T16:30:24.163Z,99238.63
2018-08-13T16:32:53.168Z,99232.58
2018-08-13T16:35:22.970Z,99229.46
2018-08-13T16:37:51.909Z,99218.95
2018-08-13T16:40:21.074Z,99231.44
2018-08-13T16:42:50.499Z,99229.90
2018-08-13T16:45:20.500Z,99229.22
2018-08-13T16:47:49.513Z,99220.20
2018-08-13T16:50:22.469Z,99223.25
2018-08-13T16:52:51.716Z,99222.81
2018-08-13T16:55:20.645Z,99223.81
2018-08-13T16:57:49.610Z,99224.91
2018-08-13T17:00:22.759Z,99227.03
2018-08-13T17:02:51.961Z,99232.56
2018-08-13T17:05:21.055Z,99234.55
2018-08-13T17:07:50.264Z,99234.14
2018-08-13T17:10:21.376Z,99237.98
2018-08-13T17:12:50.901Z,99236.78
2018-08-13T17:15:21.957Z,99246.13
2018-08-13T17:17:52.467Z,99244.89
2018-08-13T17:20:25.411Z,99243.04
2018-08-13T17:22:54.380Z,99248.84
2018-08-13T17:25:23.315Z,99258.70
2018-08-13T17:27:52.321Z,99259.00
2018-08-13T17:30:22.888Z,99259.82
2018-08-13T17:32:52.984Z,99256.70
2018-08-13T17:35:28.232Z,99262.12
2018-08-13T17:37:57.348Z,99258.44
2018-08-13T17:40:26.349Z,99241.58
2018-08-13T17:42:56.020Z,99235.77
2018-08-13T17:45:25.165Z,99239.14
2018-08-13T17:47:54.117Z,99240.79
2018-08-13T17:50:23.221Z,99230.80
2018-08-13T17:52:52.247Z,99228.11
2018-08-13T17:55:21.243Z,99215.58
2018-08-13T17:57:50.190Z,99220.36
2018-08-13T18:00:20.338Z,99229.03
2018-08-13T18:02:49.423Z,99229.25
2018-08-13T18:05:20.393Z,99244.00
2018-08-13T18:07:49.880Z,99237.78
2018-08-13T18:10:25.216Z,99245.20
2018-08-13T18:12:54.420Z,99249.92
2018-08-13T18:15:23.332Z,99261.31
2018-08-13T18:17:52.247Z,99269.34
2018-08-13T18:20:21.259Z,99279.70
2018-08-13T18:22:50.254Z,99262.30
2018-08-13T18:25:19.439Z,99276.82
2018-08-13T18:27:49.452Z,99280.72
2018-08-13T18:30:20.473Z,99283.29
2018-08-13T18:32:49.456Z,99289.55
2018-08-13T18:35:18.407Z,99292.32
2018-08-13T18:37:47.343Z,99298.81
2018-08-13T18:40:20.437Z,99304.11
2018-08-13T18:42:49.504Z,99308.44
2018-08-13T18:45:18.441Z,99316.68
2018-08-13T18:47:48.112Z,99320.03
2018-08-13T18:50:18.232Z,99320.43
2018-08-13T18:52:47.325Z,99332.17
2018-08-13T18:55:17.523Z,99334.52
2018-08-13T18:57:46.760Z,99335.27
2018-08-13T19:00:20.960Z,99339.78
2018-08-13T19:02:49.941Z,99350.36
2018-08-13T19:05:19.577Z,99358.39
2018-08-13T19:07:48.757Z,99364.05
2018-08-13T19:10:18.418Z,99365.23
2018-08-13T19:12:47.399Z,99363.27
2018-08-13T19:15:19.641Z,99353.89
2018-08-13T19:17:48.829Z,99344.09
2018-08-13T19:20:17.995Z,99356.22
2018-08-13T19:22:47.218Z,99349.78
2018-08-13T19:25:19.447Z,99346.25
2018-08-13T19:27:48.432Z,99350.34
2018-08-13T19:30:18.493Z,99347.38
2018-08-13T19:32:49.668Z,99346.14
2018-08-13T19:35:18.665Z,99343.41
2018-08-13T19:37:47.866Z,99346.70
2018-08-13T19:40:18.611Z,99365.48
2018-08-13T19:42:48.485Z,99369.64
2018-08-13T19:45:18.443Z,99374.33
2018-08-13T19:47:47.747Z,99364.75
2018-08-13T19:50:16.999Z,99368.30
2018-08-13T19:52:47.256Z,99364.00
2018-08-13T19:55:16.678Z,99351.67
2018-08-13T19:57:45.648Z,99351.22
2018-08-13T20:00:20.273Z,99347.28
2018-08-13T20:02:49.571Z,99349.14
2018-08-13T20:05:20.065Z,99337.48
2018-08-13T20:07:49.104Z,99333.39
2018-08-13T20:10:18.031Z,99341.75
2018-08-13T20:12:47.432Z,99349.09
2018-08-13T20:15:16.436Z,99351.16
2018-08-13T20:17:46.076Z,99353.58
2018-08-13T20:20:16.478Z,99355.67
2018-08-13T20:22:46.269Z,99355.27
2018-08-13T20:25:16.621Z,99352.26
2018-08-13T20:27:45.960Z,99362.84
2018-08-13T20:30:17.267Z,99369.10
2018-08-13T20:32:47.568Z,99374.16
2018-08-13T20:35:16.580Z,99370.30
2018-08-13T20:37:45.664Z,99365.95
2018-08-13T20:40:16.443Z,99371.62
2018-08-13T20:42:46.230Z,99362.54
2018-08-13T20:45:16.999Z,99352.48
2018-08-13T20:47:46.483Z,99348.92
2018-08-13T20:50:18.439Z,99347.36
2018-08-13T20:52:48.346Z,99358.78
2018-08-13T20:55:20.847Z,99369.36
2018-08-13T20:57:50.219Z,99372.92
2018-08-13T21:00:20.748Z,99375.66
2018-08-13T21:02:49.727Z,99379.77
2018-08-13T21:05:18.878Z,99385.19
2018-08-13T21:07:49.031Z,99382.08
2018-08-13T21:10:20.308Z,99378.73
2018-08-13T21:12:50.899Z,99378.31
2018-08-13T21:15:20.014Z,99378.34
2018-08-13T21:17:49.003Z,99386.16
2018-08-13T21:21:26.699Z,99385.22
2018-08-13T21:23:55.730Z,99375.45
2018-08-13T21:26:24.727Z,99372.34
2018-08-13T21:28:53.728Z,99369.84
2018-08-13T21:31:22.818Z,99375.77
2018-08-13T21:33:51.988Z,99370.32
2018-08-13T21:36:22.299Z,99365.23
2018-08-13T21:38:51.260Z,99365.31
2018-08-13T21:41:20.249Z,99363.23
2018-08-13T21:43:49.278Z,99360.53
2018-08-13T21:46:18.326Z,99354.78
2018-08-13T21:48:47.488Z,99362.97
2018-08-13T21:51:18.567Z,99360.98
2018-08-13T21:53:47.538Z,99365.69
2018-08-13T21:56:17.179Z,99366.69
2018-08-13T21:58:46.492Z,99361.66
2018-08-13T22:01:20.798Z,99360.66
2018-08-13T22:03:49.855Z,99361.27
2018-08-13T22:06:18.850Z,99361.73
2018-08-13T22:08:47.775Z,99364.63
2018-08-13T22:11:16.703Z,99369.75
2018-08-13T22:13:45.662Z,99371.53
2018-08-13T22:16:14.613Z,99375.04
2018-08-13T22:18:44.097Z,99380.30
2018-08-13T22:21:13.361Z,99378.30
2018-08-13T22:23:53.823Z,99385.25
2018-08-13T22:26:22.949Z,99382.14
2018-08-13T22:28:51.894Z,99386.64
2018-08-13T22:31:20.853Z,99381.41
2018-08-13T22:33:50.064Z,99379.91
2018-08-13T22:36:21.817Z,99376.23
2018-08-13T22:38:50.833Z,99379.21
2018-08-13T22:41:19.775Z,99374.17
2018-08-13T22:43:48.780Z,99365.77
2018-08-13T22:46:17.720Z,99377.35
2018-08-13T22:48:46.686Z,99359.98
2018-08-13T22:51:15.648Z,99371.45
2018-08-13T22:53:44.902Z,99357.98
2018-08-13T22:56:18.009Z,99374.38
2018-08-13T22:58:47.047Z,99373.23
2018-08-13T23:01:16.743Z,99385.34
2018-08-13T23:03:46.228Z,99377.23
2018-08-13T23:06:15.224Z,99377.80
2018-08-13T23:08:45.279Z,99381.86
2018-08-13T23:11:14.258Z,99383.66
2018-08-13T23:13:43.663Z,99395.14
2018-08-13T23:16:12.709Z,99393.97
2018-08-13T23:18:41.677Z,99393.36
2018-08-13T23:21:10.643Z,99396.67
2018-08-13T23:23:39.674Z,99396.67
2018-08-13T23:26:09.108Z,99393.30
2018-08-13T23:28:38.065Z,99390.96
2018-08-13T23:31:06.991Z,99398.14
2018-08-13T23:33:36.006Z,99402.92
2018-08-13T23:36:05.103Z,99401.39
2018-08-13T23:38:34.636Z,99394.80
2018-08-13T23:41:03.777Z,99397.83
2018-08-13T23:43:32.763Z,99397.98
2018-08-13T23:46:01.833Z,99394.48
2018-08-13T23:48:31.735Z,99398.71
2018-08-13T23:51:00.765Z,99392.92
2018-08-13T23:53:29.959Z,99397.52
2018-08-13T23:55:58.915Z,99389.41
2018-08-13T23:58:28.664Z,99392.39
